Time;durP1;ratioP1;P1;durP2;ratioP2;P2;SDS_P1;SDS_P2;PMS_P1;PMS_P2;Temp;Humidity;BMP_temperature;BMP_pressure;BME280_temperature;BME280_humidity;BME280_pressure;Samples;Min_cycle;Max_cycle;Signal;HPM_P1;HPM_P2
2022/09/16 00:00:15;;;;;;;2.78;0.60;;;14.00;93.70;;;;;;5035702;28;20115;-71
2022/09/16 00:02:41;;;;;;;1.58;0.77;;;14.00;93.80;;;;;;5038813;28;20059;-71
2022/09/16 00:05:07;;;;;;;2.40;0.73;;;13.90;93.80;;;;;;5032364;28;20033;-71
2022/09/16 00:07:33;;;;;;;4.65;0.90;;;14.00;93.80;;;;;;5034466;28;20082;-71
2022/09/16 00:09:59;;;;;;;2.85;1.05;;;14.00;93.70;;;;;;5033738;28;20064;-71
2022/09/16 00:12:25;;;;;;;1.08;0.60;;;14.00;93.70;;;;;;5036130;28;20048;-71
2022/09/16 00:14:53;;;;;;;1.58;0.63;;;13.90;93.80;;;;;;5039361;28;20097;-71
2022/09/16 00:17:19;;;;;;;1.42;0.60;;;13.90;94.00;;;;;;5037911;28;20108;-71
2022/09/16 00:19:45;;;;;;;2.53;0.73;;;13.90;93.90;;;;;;5036966;28;20035;-70
2022/09/16 00:22:11;;;;;;;4.57;0.68;;;13.90;94.00;;;;;;5033725;28;20034;-69
2022/09/16 00:24:37;;;;;;;2.33;0.80;;;13.80;94.00;;;;;;5034818;28;20044;-71
2022/09/16 00:27:03;;;;;;;1.48;0.90;;;13.80;94.10;;;;;;5030858;28;20022;-70
2022/09/16 00:29:29;;;;;;;2.85;0.90;;;13.80;94.10;;;;;;5037372;28;20168;-70
2022/09/16 00:31:54;;;;;;;1.77;0.70;;;13.80;94.30;;;;;;5039826;28;20890;-70
2022/09/16 00:34:20;;;;;;;1.33;1.20;;;13.80;94.40;;;;;;5035183;28;20103;-70
2022/09/16 00:36:46;;;;;;;1.77;0.70;;;13.80;94.50;;;;;;5037867;28;20485;-70
2022/09/16 00:39:12;;;;;;;1.33;0.90;;;13.70;94.50;;;;;;5034720;28;20478;-70
2022/09/16 00:41:37;;;;;;;3.17;0.70;;;13.70;94.60;;;;;;5035572;28;20071;-70
2022/09/16 00:44:07;;;;;;;4.90;1.23;;;13.70;94.60;;;;;;5030529;28;20057;-70
2022/09/16 00:46:39;;;;;;;1.25;0.70;;;13.70;94.60;;;;;;5033337;28;20776;-70
2022/09/16 00:49:11;;;;;;;2.40;1.10;;;13.80;94.60;;;;;;5038016;28;20123;-70
2022/09/16 00:51:37;;;;;;;3.00;0.88;;;13.70;94.70;;;;;;5043126;28;20112;-71
2022/09/16 00:54:05;;;;;;;3.47;0.90;;;13.80;95.00;;;;;;5041389;28;20047;-70
2022/09/16 00:56:36;;;;;;;1.67;0.75;;;13.70;94.70;;;;;;5040628;28;20690;-70
2022/09/16 00:59:20;;;;;;;2.72;0.90;;;13.70;94.70;;;;;;5036833;28;20123;-71
2022/09/16 01:01:47;;;;;;;1.30;0.80;;;13.70;94.70;;;;;;5038241;28;20142;-70
2022/09/16 01:04:18;;;;;;;1.35;0.90;;;13.70;94.80;;;;;;5037184;28;20030;-70
2022/09/16 01:06:44;;;;;;;1.63;0.85;;;13.70;94.80;;;;;;5036466;28;20226;-71
2022/09/16 01:09:10;;;;;;;4.68;1.25;;;13.70;94.80;;;;;;5043440;28;20089;-71
2022/09/16 01:11:36;;;;;;;4.10;0.93;;;13.60;94.80;;;;;;5041785;28;20045;-70
2022/09/16 01:16:58;;;;;;;4.13;0.88;;;13.60;94.80;;;;;;5041934;28;20073;-70
2022/09/16 01:19:46;;;;;;;2.97;0.77;;;13.60;94.90;;;;;;5038926;28;20753;-70
2022/09/16 01:22:26;;;;;;;4.57;1.50;;;13.60;95.00;;;;;;5039866;28;20048;-70
2022/09/16 01:25:24;;;;;;;3.00;0.90;;;13.60;95.10;;;;;;5037512;28;20552;-69
2022/09/16 01:28:33;;;;;;;3.15;1.00;;;13.50;95.00;;;;;;5043203;28;20037;-70
2022/09/16 01:31:20;;;;;;;3.75;1.08;;;13.50;95.10;;;;;;5015488;28;20038;-69
2022/09/16 01:34:07;;;;;;;4.00;1.08;;;13.60;95.10;;;;;;5039174;28;20473;-70
2022/09/16 01:36:51;;;;;;;2.72;0.90;;;13.50;95.10;;;;;;5037850;28;20037;-71
2022/09/16 01:39:29;;;;;;;2.53;1.25;;;13.50;95.10;;;;;;5037663;28;20033;-70
2022/09/16 01:42:04;;;;;;;4.20;1.33;;;13.50;95.10;;;;;;5033388;28;20053;-71
2022/09/16 01:44:52;;;;;;;2.72;0.90;;;13.50;95.10;;;;;;5039505;28;20021;-70
2022/09/16 01:47:29;;;;;;;2.95;1.02;;;13.50;95.20;;;;;;5040408;28;20045;-70
2022/09/16 01:50:17;;;;;;;2.88;1.25;;;13.50;95.20;;;;;;5038522;28;20033;-70
2022/09/16 01:53:03;;;;;;;2.00;1.17;;;13.50;95.20;;;;;;5037036;28;20083;-70
2022/09/16 01:55:35;;;;;;;2.92;1.00;;;13.40;95.30;;;;;;5037092;28;20040;-71
2022/09/16 01:58:28;;;;;;;3.47;1.27;;;13.40;95.20;;;;;;5034699;28;20451;-70
2022/09/16 02:01:01;;;;;;;4.13;1.17;;;13.40;95.30;;;;;;5034777;28;20038;-71
2022/09/16 02:03:30;;;;;;;5.40;1.15;;;13.40;95.30;;;;;;5039009;28;20040;-70
2022/09/16 02:06:14;;;;;;;3.63;1.00;;;13.40;95.40;;;;;;5040239;28;20025;-70
2022/09/16 02:08:57;;;;;;;2.72;1.17;;;13.40;95.40;;;;;;5038676;28;20040;-69
2022/09/16 02:11:24;;;;;;;3.00;1.38;;;13.40;95.40;;;;;;5040088;28;20025;-70
2022/09/16 02:13:56;;;;;;;4.22;1.40;;;13.40;95.40;;;;;;5038740;28;20025;-70
2022/09/16 02:16:30;;;;;;;6.88;1.33;;;13.40;95.50;;;;;;5041465;28;20064;-70
2022/09/16 02:19:04;;;;;;;3.00;1.08;;;13.40;95.40;;;;;;5034984;28;20036;-70
2022/09/16 02:21:33;;;;;;;5.10;1.05;;;13.40;95.50;;;;;;5036973;28;20029;-70
2022/09/16 02:24:02;;;;;;;4.60;1.08;;;13.40;95.80;;;;;;5042806;28;20029;-70
2022/09/16 02:26:35;;;;;;;2.38;1.10;;;13.40;95.50;;;;;;5037117;28;20033;-70
2022/09/16 02:29:05;;;;;;;3.25;1.10;;;13.30;95.50;;;;;;5039386;28;20522;-69
2022/09/16 02:31:35;;;;;;;2.45;1.10;;;13.30;95.40;;;;;;5039485;28;20082;-70
2022/09/16 02:34:09;;;;;;;4.43;1.23;;;13.30;95.40;;;;;;5035629;28;20107;-70
2022/09/16 02:36:38;;;;;;;2.78;1.20;;;13.30;95.50;;;;;;5036645;28;20104;-70
2022/09/16 02:39:08;;;;;;;3.38;1.80;;;13.30;95.30;;;;;;5033411;28;20144;-70
2022/09/16 02:41:36;;;;;;;4.10;1.20;;;13.30;95.40;;;;;;5039159;28;20039;-70
2022/09/16 02:44:03;;;;;;;3.85;1.70;;;13.20;95.40;;;;;;5041256;28;20035;-70
2022/09/16 02:46:34;;;;;;;4.85;1.38;;;13.20;95.50;;;;;;5040798;28;20108;-70
2022/09/16 02:49:19;;;;;;;1.90;1.30;;;13.20;95.50;;;;;;5038412;28;20477;-70
2022/09/16 02:52:06;;;;;;;3.22;1.20;;;13.20;95.50;;;;;;5037499;28;20051;-70
2022/09/16 02:55:03;;;;;;;4.03;1.73;;;13.20;95.60;;;;;;5037273;28;20094;-70
2022/09/16 02:57:29;;;;;;;1.05;0.90;;;13.10;95.70;;;;;;5038827;28;20090;-69
2022/09/16 02:59:55;;;;;;;5.15;1.30;;;13.10;95.80;;;;;;5035376;28;20029;-70
2022/09/16 03:02:21;;;;;;;2.53;1.20;;;13.20;95.70;;;;;;5041135;28;20033;-70
2022/09/16 03:04:47;;;;;;;2.90;1.38;;;13.10;95.70;;;;;;5041144;28;20044;-70
2022/09/16 03:07:14;;;;;;;4.18;1.33;;;13.10;95.50;;;;;;5038100;28;20041;-70
2022/09/16 03:09:46;;;;;;;3.42;1.35;;;13.10;95.70;;;;;;5038714;28;20417;-70
2022/09/16 03:12:42;;;;;;;2.70;1.05;;;13.00;95.80;;;;;;5031128;28;20048;-70
2022/09/16 03:15:29;;;;;;;4.95;1.20;;;13.10;95.80;;;;;;5030467;28;20065;-71
2022/09/16 03:17:57;;;;;;;2.95;1.10;;;13.10;95.80;;;;;;5029646;28;20048;-72
2022/09/16 03:20:35;;;;;;;3.08;1.10;;;13.10;95.90;;;;;;5039538;28;20037;-71
2022/09/16 03:23:06;;;;;;;2.17;1.40;;;13.10;95.90;;;;;;5036674;28;20115;-72
2022/09/16 03:25:41;;;;;;;4.25;1.55;;;13.20;95.90;;;;;;5034851;28;20036;-71
2022/09/16 03:28:18;;;;;;;3.80;1.48;;;13.20;95.90;;;;;;5034574;28;20124;-71
2022/09/16 03:31:07;;;;;;;3.67;1.33;;;13.20;95.80;;;;;;5035944;28;20044;-70
2022/09/16 03:34:00;;;;;;;7.82;1.50;;;13.20;95.70;;;;;;5034837;28;20111;-70
2022/09/16 03:36:32;;;;;;;6.70;1.73;;;13.30;95.60;;;;;;5034201;28;20035;-71
2022/09/16 03:38:59;;;;;;;4.22;1.20;;;13.20;95.50;;;;;;5038673;28;20510;-70
2022/09/16 03:41:29;;;;;;;3.22;1.00;;;13.20;95.40;;;;;;5034212;28;20107;-70
2022/09/16 03:43:56;;;;;;;5.35;1.48;;;13.20;95.50;;;;;;5038719;28;20028;-70
2022/09/16 03:46:23;;;;;;;2.83;1.13;;;13.20;95.50;;;;;;5037840;28;20021;-71
2022/09/16 03:48:49;;;;;;;3.28;1.27;;;13.10;95.50;;;;;;5038547;28;20025;-71
2022/09/16 03:51:15;;;;;;;2.08;0.95;;;13.10;95.60;;;;;;5035019;28;20029;-70
2022/09/16 03:53:41;;;;;;;4.10;1.23;;;13.10;95.60;;;;;;5033862;28;20029;-70
2022/09/16 03:56:07;;;;;;;5.07;1.27;;;13.10;95.60;;;;;;5035604;28;20041;-71
2022/09/16 03:58:32;;;;;;;3.63;1.05;;;13.10;95.60;;;;;;5041103;28;20102;-70
2022/09/16 04:00:58;;;;;;;3.15;1.13;;;13.10;95.50;;;;;;5039038;28;20087;-71
2022/09/16 04:03:24;;;;;;;3.78;1.35;;;13.00;95.40;;;;;;5039168;28;20033;-70
2022/09/16 04:05:53;;;;;;;2.47;1.00;;;13.10;95.40;;;;;;5036592;28;20021;-72
2022/09/16 04:08:19;;;;;;;3.95;1.17;;;13.00;95.40;;;;;;5035599;28;20030;-71
2022/09/16 04:10:55;;;;;;;3.33;1.17;;;13.00;95.40;;;;;;5034070;28;20033;-71
2022/09/16 04:13:21;;;;;;;2.83;1.10;;;12.90;95.50;;;;;;5033441;28;20041;-72
2022/09/16 04:15:47;;;;;;;5.63;1.40;;;13.00;95.40;;;;;;5037631;28;20060;-71
2022/09/16 04:18:13;;;;;;;2.78;1.15;;;12.90;95.50;;;;;;5039251;28;20032;-71
2022/09/16 04:20:38;;;;;;;4.35;1.35;;;12.90;95.60;;;;;;5038296;28;20112;-71
2022/09/16 04:23:04;;;;;;;5.80;1.75;;;12.90;95.60;;;;;;5033703;28;20029;-71
2022/09/16 04:25:30;;;;;;;3.35;1.30;;;12.90;95.70;;;;;;5037451;28;20021;-71
2022/09/16 04:27:56;;;;;;;8.05;2.17;;;12.90;95.60;;;;;;5036001;28;20032;-70
2022/09/16 04:30:22;;;;;;;6.57;2.63;;;12.90;95.60;;;;;;5036462;28;20139;-71
2022/09/16 04:32:52;;;;;;;10.15;4.90;;;12.90;95.60;;;;;;5033594;28;20041;-72
2022/09/16 04:35:18;;;;;;;7.97;3.28;;;12.90;95.60;;;;;;5042304;28;20042;-73
2022/09/16 04:37:45;;;;;;;5.93;3.05;;;12.90;95.50;;;;;;5042737;28;20044;-71
2022/09/16 04:40:14;;;;;;;6.65;3.53;;;12.90;95.50;;;;;;5040232;28;20550;-71
2022/09/16 04:42:40;;;;;;;4.47;2.40;;;12.90;95.50;;;;;;5039208;28;20029;-72
2022/09/16 04:45:06;;;;;;;6.22;2.03;;;12.80;95.50;;;;;;5036374;28;20030;-72
2022/09/16 04:47:32;;;;;;;15.18;6.00;;;12.80;95.60;;;;;;5040659;28;20033;-71
2022/09/16 04:49:57;;;;;;;11.10;4.88;;;12.80;95.60;;;;;;5033960;28;20496;-71
2022/09/16 04:52:23;;;;;;;6.47;3.00;;;12.80;95.50;;;;;;5034352;28;20037;-71
2022/09/16 04:54:49;;;;;;;4.40;1.25;;;12.80;95.50;;;;;;5044290;28;20676;-71
2022/09/16 04:57:15;;;;;;;2.83;1.13;;;12.80;95.40;;;;;;5041942;28;20091;-71
2022/09/16 04:59:40;;;;;;;5.65;1.50;;;12.80;95.40;;;;;;5041500;28;20025;-71
2022/09/16 05:02:06;;;;;;;1.30;1.08;;;12.80;95.40;;;;;;5032238;28;20040;-71
2022/09/16 05:04:32;;;;;;;5.18;1.20;;;12.80;95.50;;;;;;5043055;28;20025;-70
2022/09/16 05:06:58;;;;;;;3.40;1.27;;;12.80;95.60;;;;;;5035808;28;20664;-71
2022/09/16 05:09:23;;;;;;;4.30;1.08;;;12.80;95.50;;;;;;5035644;28;20682;-71
2022/09/16 05:11:49;;;;;;;2.78;0.90;;;12.80;95.50;;;;;;5036482;28;20516;-72
2022/09/16 05:14:17;;;;;;;4.60;1.10;;;12.80;95.50;;;;;;5042608;28;20112;-71
2022/09/16 05:16:43;;;;;;;11.73;3.90;;;12.80;95.60;;;;;;5043656;28;20033;-71
2022/09/16 05:19:13;;;;;;;4.95;1.98;;;12.80;95.70;;;;;;5039836;28;20034;-71
2022/09/16 05:21:39;;;;;;;4.13;1.33;;;12.80;95.60;;;;;;5040088;28;20095;-71
2022/09/16 05:24:08;;;;;;;4.38;1.60;;;12.80;95.70;;;;;;5036246;28;20394;-71
2022/09/16 05:26:35;;;;;;;5.50;1.80;;;12.80;95.60;;;;;;5036959;28;20119;-71
2022/09/16 05:29:03;;;;;;;10.07;3.38;;;12.80;95.70;;;;;;5033406;28;20048;-71
2022/09/16 05:31:31;;;;;;;5.78;1.52;;;12.80;95.70;;;;;;5039777;28;20029;-71
2022/09/16 05:34:05;;;;;;;6.18;1.40;;;12.80;95.70;;;;;;5035175;28;20805;-72
2022/09/16 05:36:33;;;;;;;3.00;1.20;;;12.90;95.70;;;;;;5039386;28;20067;-72
2022/09/16 05:39:00;;;;;;;4.57;1.05;;;12.90;95.60;;;;;;5040557;28;20033;-71
2022/09/16 05:41:26;;;;;;;3.78;1.10;;;12.90;95.60;;;;;;5038567;28;20036;-72
2022/09/16 05:43:53;;;;;;;5.43;1.52;;;12.90;95.50;;;;;;5037794;28;20036;-71
2022/09/16 05:46:20;;;;;;;5.22;1.40;;;13.00;95.50;;;;;;5037450;28;20025;-71
2022/09/16 05:48:47;;;;;;;2.60;1.48;;;13.00;95.40;;;;;;5037782;28;20071;-71
2022/09/16 05:51:18;;;;;;;6.70;1.40;;;13.00;95.40;;;;;;5044079;28;20036;-71
2022/09/16 05:53:45;;;;;;;5.55;2.75;;;13.00;95.40;;;;;;5039764;28;20037;-71
2022/09/16 05:56:16;;;;;;;10.90;4.88;;;13.00;95.30;;;;;;5039846;28;20404;-71
2022/09/16 05:58:42;;;;;;;6.35;2.83;;;13.00;95.30;;;;;;5039191;28;20071;-72
2022/09/16 06:01:12;;;;;;;9.02;4.55;;;13.10;95.40;;;;;;5035862;28;20041;-71
2022/09/16 06:03:39;;;;;;;9.30;4.35;;;13.10;95.40;;;;;;5036174;28;20029;-72
2022/09/16 06:06:23;;;;;;;11.20;3.95;;;13.10;95.30;;;;;;5035157;28;20026;-72
2022/09/16 06:08:49;;;;;;;6.65;2.30;;;13.20;95.30;;;;;;5039171;28;20569;-71
2022/09/16 06:11:15;;;;;;;10.23;3.55;;;13.20;95.20;;;;;;5041019;28;20572;-71
2022/09/16 06:13:41;;;;;;;8.90;2.85;;;13.20;95.10;;;;;;5040945;28;20614;-71
2022/09/16 06:16:08;;;;;;;4.53;1.67;;;13.30;95.00;;;;;;5040325;28;20068;-70
2022/09/16 06:18:35;;;;;;;6.18;1.98;;;13.40;95.00;;;;;;5040887;28;20128;-71
2022/09/16 06:21:09;;;;;;;3.28;2.00;;;13.40;94.80;;;;;;5036118;28;20653;-71
2022/09/16 06:23:36;;;;;;;4.47;2.10;;;13.40;94.80;;;;;;5037078;28;20039;-71
2022/09/16 06:26:05;;;;;;;5.68;1.52;;;13.40;94.70;;;;;;5033432;28;20088;-71
2022/09/16 06:28:31;;;;;;;4.15;1.77;;;13.50;94.80;;;;;;5041481;28;20040;-70
2022/09/16 06:31:02;;;;;;;3.03;1.75;;;13.70;94.50;;;;;;5041404;28;20074;-70
2022/09/16 06:33:28;;;;;;;3.58;1.55;;;13.70;94.30;;;;;;5039196;28;20033;-70
2022/09/16 06:35:55;;;;;;;4.63;1.73;;;13.70;94.30;;;;;;5039547;28;20029;-70
2022/09/16 06:38:21;;;;;;;3.40;1.63;;;13.70;94.30;;;;;;5041243;28;20616;-70
2022/09/16 06:40:48;;;;;;;7.35;1.60;;;13.80;94.30;;;;;;5036769;28;20115;-69
2022/09/16 06:43:14;;;;;;;4.50;2.28;;;13.90;94.20;;;;;;5035181;28;20133;-70
2022/09/16 06:45:39;;;;;;;5.25;1.83;;;13.90;93.80;;;;;;5035881;28;20120;-70
2022/09/16 06:48:05;;;;;;;2.45;1.60;;;13.90;94.00;;;;;;5041434;28;20036;-70
2022/09/16 06:50:31;;;;;;;4.15;1.88;;;14.00;94.00;;;;;;5041749;28;20446;-70
2022/09/16 06:52:57;;;;;;;4.68;1.33;;;14.00;93.90;;;;;;5039043;28;20048;-70
2022/09/16 06:55:22;;;;;;;9.45;1.67;;;14.10;93.80;;;;;;5039549;28;20540;-70
2022/09/16 06:57:48;;;;;;;5.30;1.52;;;14.20;93.50;;;;;;5037808;28;20560;-70
2022/09/16 07:00:14;;;;;;;4.22;1.67;;;14.30;93.40;;;;;;5036342;28;20029;-70
2022/09/16 07:02:40;;;;;;;10.32;1.73;;;14.40;93.30;;;;;;5035636;28;20078;-70
2022/09/16 07:05:06;;;;;;;3.20;1.50;;;14.50;93.30;;;;;;5036765;28;20031;-69
2022/09/16 07:07:32;;;;;;;3.55;1.75;;;14.60;92.80;;;;;;5042339;28;20050;-70
2022/09/16 07:09:58;;;;;;;3.22;1.55;;;14.70;92.50;;;;;;5039614;28;20040;-70
2022/09/16 07:12:24;;;;;;;4.20;1.73;;;14.70;92.30;;;;;;5039332;28;20048;-70
2022/09/16 07:14:50;;;;;;;4.68;1.60;;;14.70;92.40;;;;;;5038912;28;20108;-69
2022/09/16 07:17:15;;;;;;;8.38;1.60;;;14.70;92.40;;;;;;5037521;28;20123;-70
2022/09/16 07:19:41;;;;;;;5.78;1.80;;;14.70;92.00;;;;;;5034100;28;20024;-70
2022/09/16 07:22:07;;;;;;;3.80;1.98;;;14.70;92.20;;;;;;5032889;28;20138;-70
2022/09/16 07:24:33;;;;;;;2.47;1.50;;;14.70;92.20;;;;;;5036794;28;20378;-70
2022/09/16 07:26:58;;;;;;;3.92;1.25;;;14.80;92.10;;;;;;5040741;28;20082;-70
2022/09/16 07:29:24;;;;;;;6.50;1.90;;;14.80;92.00;;;;;;5039770;28;20388;-70
2022/09/16 07:31:50;;;;;;;6.72;2.70;;;14.90;91.80;;;;;;5039049;28;20056;-70
2022/09/16 07:34:16;;;;;;;3.63;1.77;;;15.00;91.80;;;;;;5034572;28;20033;-70
2022/09/16 07:36:45;;;;;;;3.75;1.85;;;15.10;91.60;;;;;;5036257;28;20033;-70
2022/09/16 07:39:13;;;;;;;4.53;1.88;;;15.20;91.50;;;;;;5033576;28;20078;-70
2022/09/16 07:41:41;;;;;;;6.25;2.15;;;15.40;91.40;;;;;;5033976;28;20029;-70
2022/09/16 07:44:10;;;;;;;7.70;2.20;;;15.60;91.10;;;;;;5039271;28;20068;-70
2022/09/16 07:46:36;;;;;;;5.38;1.90;;;15.70;90.60;;;;;;5040931;28;20086;-70
2022/09/16 07:49:05;;;;;;;5.55;1.75;;;15.80;90.20;;;;;;5038434;28;20033;-70
2022/09/16 07:51:32;;;;;;;7.25;2.20;;;15.80;90.10;;;;;;5038867;28;20107;-70
2022/09/16 07:54:04;;;;;;;3.00;1.33;;;15.90;88.50;;;;;;5035199;28;20044;-70
2022/09/16 07:56:33;;;;;;;7.93;2.08;;;15.90;89.00;;;;;;5035917;28;20025;-69
2022/09/16 07:59:00;;;;;;;3.60;1.58;;;16.10;88.60;;;;;;5030226;28;20037;-70
2022/09/16 08:01:26;;;;;;;3.10;1.60;;;16.20;88.60;;;;;;5034098;28;20025;-69
2022/09/16 08:03:54;;;;;;;3.22;1.33;;;16.30;88.30;;;;;;5040004;28;20094;-70
2022/09/16 08:06:22;;;;;;;6.00;1.65;;;16.30;87.20;;;;;;5036428;28;20040;-70
2022/09/16 08:08:51;;;;;;;8.80;2.75;;;16.30;87.70;;;;;;5036187;28;20065;-69
2022/09/16 08:11:17;;;;;;;9.75;4.78;;;16.40;86.70;;;;;;5036245;28;20778;-70
2022/09/16 08:13:45;;;;;;;3.45;1.60;;;16.40;86.00;;;;;;5035761;28;20032;-70
2022/09/16 08:16:21;;;;;;;4.97;1.40;;;16.30;85.90;;;;;;5036716;28;20110;-69
2022/09/16 08:18:52;;;;;;;4.68;1.88;;;16.30;86.10;;;;;;5032283;28;20033;-68
2022/09/16 08:21:21;;;;;;;8.13;2.10;;;16.40;86.20;;;;;;5039734;28;20044;-70
2022/09/16 08:23:47;;;;;;;4.55;1.30;;;16.40;86.70;;;;;;5036979;28;20029;-69
2022/09/16 08:26:14;;;;;;;6.38;1.30;;;16.50;85.70;;;;;;5038081;28;20049;-72
2022/09/16 08:28:43;;;;;;;6.43;2.28;;;16.50;85.50;;;;;;5038234;28;20033;-70
2022/09/16 08:31:09;;;;;;;7.38;1.73;;;16.60;84.10;;;;;;5034510;28;20228;-69
2022/09/16 08:33:37;;;;;;;6.90;1.50;;;16.60;84.10;;;;;;5035916;28;20483;-70
2022/09/16 08:36:07;;;;;;;3.97;1.52;;;16.60;83.10;;;;;;5031845;28;20419;-70
2022/09/16 08:38:33;;;;;;;10.95;2.08;;;16.50;83.00;;;;;;5034031;28;20041;-69
2022/09/16 08:41:16;;;;;;;3.42;1.67;;;16.40;84.30;;;;;;5039867;28;20029;-69
2022/09/16 08:44:00;;;;;;;5.18;1.48;;;16.40;84.70;;;;;;5038388;28;20021;-72
2022/09/16 08:46:58;;;;;;;3.17;1.30;;;16.40;83.90;;;;;;5031915;28;20477;-72
2022/09/16 08:49:30;;;;;;;5.07;1.15;;;16.50;84.00;;;;;;5038690;28;20754;-71
2022/09/16 08:51:58;;;;;;;3.75;1.08;;;16.50;82.50;;;;;;5033765;28;20039;-72
2022/09/16 08:54:37;;;;;;;5.13;1.30;;;16.60;83.60;;;;;;5033880;28;20079;-72
2022/09/16 08:57:05;;;;;;;7.28;1.20;;;16.80;82.20;;;;;;5030076;28;20034;-72
2022/09/16 08:59:38;;;;;;;4.53;1.02;;;17.00;82.20;;;;;;5040929;28;20021;-72
2022/09/16 09:02:10;;;;;;;3.97;1.02;;;17.00;79.20;;;;;;5038900;28;20063;-72
2022/09/16 09:04:36;;;;;;;4.53;1.00;;;17.10;79.70;;;;;;5037926;28;20064;-71
2022/09/16 09:07:18;;;;;;;4.25;0.93;;;17.20;80.00;;;;;;5035115;28;20069;-72
2022/09/16 09:10:00;;;;;;;3.75;1.50;;;17.20;76.80;;;;;;5034714;28;20040;-71
2022/09/16 09:12:37;;;;;;;4.50;1.35;;;17.30;77.60;;;;;;5037853;28;20037;-72
2022/09/16 09:15:12;;;;;;;4.97;1.48;;;17.40;78.10;;;;;;5041640;28;20040;-72
2022/09/16 09:17:56;;;;;;;9.77;2.38;;;17.50;78.20;;;;;;5041186;28;20900;-72
2022/09/16 09:20:31;;;;;;;6.85;1.80;;;17.60;75.80;;;;;;5043191;28;20035;-71
2022/09/16 09:23:24;;;;;;;6.03;1.02;;;17.60;76.00;;;;;;5039736;28;20087;-71
2022/09/16 09:26:08;;;;;;;7.45;1.33;;;17.70;76.70;;;;;;5039510;28;20095;-71
2022/09/16 09:28:57;;;;;;;5.50;1.60;;;17.80;76.00;;;;;;5039992;28;20764;-72
2022/09/16 09:31:45;;;;;;;10.27;1.80;;;17.90;75.20;;;;;;5037902;28;20028;-72
2022/09/16 09:34:33;;;;;;;5.70;1.60;;;17.90;73.40;;;;;;5035177;28;20048;-71
2022/09/16 09:37:05;;;;;;;9.13;2.15;;;18.00;75.00;;;;;;5040438;28;20064;-71
2022/09/16 09:39:52;;;;;;;7.05;1.70;;;18.20;72.60;;;;;;5040220;28;20021;-71
2022/09/16 09:42:34;;;;;;;4.60;1.38;;;18.30;73.90;;;;;;5040717;28;20048;-72
2022/09/16 09:45:23;;;;;;;7.00;1.40;;;18.60;73.90;;;;;;5038657;28;20405;-71
2022/09/16 09:48:19;;;;;;;7.90;1.67;;;18.70;68.80;;;;;;5037875;28;20025;-72
2022/09/16 09:50:47;;;;;;;5.25;1.15;;;18.70;68.30;;;;;;5034145;28;20607;-71
2022/09/16 09:53:31;;;;;;;4.78;1.80;;;18.60;69.20;;;;;;5034815;28;20018;-71
2022/09/16 09:56:25;;;;;;;4.68;1.40;;;18.50;66.80;;;;;;5040525;28;20045;-71
2022/09/16 09:59:09;;;;;;;2.58;1.10;;;18.40;67.70;;;;;;5040096;28;20035;-72
2022/09/16 10:01:34;;;;;;;4.10;1.50;;;18.30;67.80;;;;;;5040183;28;20151;-72
2022/09/16 10:04:01;;;;;;;2.78;0.95;;;18.20;68.50;;;;;;5039111;28;20882;-72
2022/09/16 10:06:32;;;;;;;5.65;0.82;;;18.40;69.60;;;;;;5039903;28;20171;-72
2022/09/16 10:08:58;;;;;;;10.70;0.80;;;19.00;65.70;;;;;;5034633;28;20536;-72
2022/09/16 10:11:30;;;;;;;5.65;0.60;;;19.30;65.90;;;;;;5041595;28;20130;-71
2022/09/16 10:14:00;;;;;;;4.53;0.90;;;19.20;64.70;;;;;;5033149;28;20033;-72
2022/09/16 10:16:38;;;;;;;7.78;0.88;;;19.10;64.90;;;;;;5039285;28;20033;-72
2022/09/16 10:19:20;;;;;;;3.30;1.13;;;19.10;65.40;;;;;;5041060;28;20044;-72
2022/09/16 10:21:52;;;;;;;3.20;0.90;;;19.10;65.90;;;;;;5040538;28;20033;-71
2022/09/16 10:24:41;;;;;;;2.88;0.73;;;19.10;64.00;;;;;;5037862;28;20037;-72
2022/09/16 10:27:37;;;;;;;4.68;0.73;;;19.20;65.10;;;;;;5035682;28;20204;-71
2022/09/16 10:30:18;;;;;;;2.93;1.07;;;19.40;62.00;;;;;;5036653;28;20045;-72
2022/09/16 10:32:53;;;;;;;3.33;0.85;;;19.50;64.00;;;;;;5039836;28;20029;-72
2022/09/16 10:35:30;;;;;;;6.15;1.40;;;19.60;61.80;;;;;;5040810;28;20088;-72
2022/09/16 10:37:58;;;;;;;3.92;0.60;;;19.60;61.70;;;;;;5037922;28;20031;-71
2022/09/16 10:40:25;;;;;;;6.28;0.73;;;19.50;62.50;;;;;;5039268;28;20493;-72
2022/09/16 10:42:53;;;;;;;4.75;1.20;;;19.30;62.50;;;;;;5036369;28;20021;-71
2022/09/16 10:45:28;;;;;;;7.38;0.80;;;19.30;63.70;;;;;;5036660;28;20037;-72
2022/09/16 10:47:59;;;;;;;3.63;0.93;;;19.30;60.90;;;;;;5033860;28;20090;-71
2022/09/16 10:50:25;;;;;;;4.72;1.00;;;19.20;61.50;;;;;;5034740;28;20048;-72
2022/09/16 10:52:51;;;;;;;1.60;0.73;;;18.90;61.70;;;;;;5041922;28;20033;-72
2022/09/16 10:55:37;;;;;;;4.88;1.10;;;18.70;62.40;;;;;;5040407;28;20060;-72
2022/09/16 10:58:15;;;;;;;5.00;0.73;;;18.70;63.50;;;;;;5032428;28;20040;-71
2022/09/16 11:00:54;;;;;;;4.65;0.82;;;18.90;64.80;;;;;;5038412;28;20070;-71
2022/09/16 11:03:35;;;;;;;3.95;0.70;;;19.40;64.30;;;;;;5036855;28;20855;-71
2022/09/16 11:06:13;;;;;;;3.50;0.70;;;19.60;63.30;;;;;;5032905;28;20037;-71
2022/09/16 11:08:46;;;;;;;2.65;0.77;;;19.80;62.80;;;;;;5035428;28;20400;-71
2022/09/16 11:11:33;;;;;;;5.35;0.80;;;19.90;62.10;;;;;;5039851;28;20132;-71
2022/09/16 11:14:15;;;;;;;4.70;0.65;;;20.10;59.50;;;;;;5037803;28;20074;-72
2022/09/16 11:16:55;;;;;;;4.07;0.77;;;20.10;57.60;;;;;;5040338;28;20032;-72
2022/09/16 11:19:32;;;;;;;5.18;0.93;;;20.00;57.40;;;;;;5037445;28;20040;-71
2022/09/16 11:22:18;;;;;;;3.97;0.80;;;19.90;58.10;;;;;;5034526;28;20087;-71
2022/09/16 11:25:02;;;;;;;6.93;0.70;;;19.90;59.40;;;;;;5035181;28;20045;-71
2022/09/16 11:28:01;;;;;;;5.25;0.90;;;19.80;60.10;;;;;;5034485;28;20060;-71
2022/09/16 11:30:33;;;;;;;4.43;0.63;;;20.00;59.00;;;;;;5037845;28;20386;-72
2022/09/16 11:33:10;;;;;;;6.22;1.48;;;20.10;57.10;;;;;;5038547;28;20052;-71
2022/09/16 11:35:54;;;;;;;6.65;0.82;;;20.20;55.60;;;;;;5037907;28;20055;-71
2022/09/16 11:38:37;;;;;;;4.63;1.13;;;20.20;58.30;;;;;;5037520;28;20047;-71
2022/09/16 11:41:20;;;;;;;3.75;0.90;;;20.30;57.90;;;;;;5034287;28;20065;-71
2022/09/16 11:44:00;;;;;;;5.22;0.80;;;20.40;56.80;;;;;;5035069;28;20242;-71
2022/09/16 11:46:47;;;;;;;6.68;1.10;;;20.40;54.70;;;;;;5034665;28;20550;-70
2022/09/16 11:49:31;;;;;;;2.85;0.70;;;20.30;55.80;;;;;;5054361;28;20037;-70
2022/09/16 11:52:19;;;;;;;11.55;1.35;;;20.40;55.40;;;;;;5038118;28;20083;-70
2022/09/16 11:55:26;;;;;;;8.15;1.23;;;20.50;55.00;;;;;;5037066;28;20032;-70
2022/09/16 11:58:01;;;;;;;5.93;1.10;;;20.50;55.40;;;;;;5033480;28;20033;-70
2022/09/16 12:00:30;;;;;;;1.83;0.85;;;20.50;54.20;;;;;;5035564;28;20524;-70
2022/09/16 12:03:23;;;;;;;3.35;1.02;;;20.40;53.80;;;;;;5032844;28;20117;-70
2022/09/16 12:06:02;;;;;;;3.88;1.00;;;20.30;54.10;;;;;;5034460;28;20035;-70
2022/09/16 12:08:37;;;;;;;6.07;0.88;;;20.30;53.70;;;;;;5038077;28;20542;-70
2022/09/16 12:11:31;;;;;;;5.10;1.08;;;20.40;54.50;;;;;;5038926;28;20064;-70
2022/09/16 12:14:09;;;;;;;3.72;0.70;;;20.30;53.90;;;;;;5035604;28;20736;-70
2022/09/16 12:16:48;;;;;;;3.38;1.10;;;20.30;54.80;;;;;;5038982;28;20028;-70
2022/09/16 12:19:33;;;;;;;3.10;0.90;;;20.30;54.20;;;;;;5034869;28;20091;-70
2022/09/16 12:22:10;;;;;;;4.32;1.17;;;20.30;54.60;;;;;;5032200;28;20087;-70
2022/09/16 12:24:53;;;;;;;5.90;1.02;;;20.40;53.50;;;;;;5034029;28;20079;-70
2022/09/16 12:27:44;;;;;;;4.88;1.10;;;20.40;53.70;;;;;;5040907;28;20497;-69
2022/09/16 12:30:26;;;;;;;7.00;0.90;;;20.30;54.60;;;;;;5033281;28;20044;-69
2022/09/16 12:33:11;;;;;;;3.17;0.80;;;20.40;54.70;;;;;;5036734;28;20036;-70
2022/09/16 12:35:43;;;;;;;2.53;0.60;;;20.50;54.00;;;;;;5035671;28;20055;-70
2022/09/16 12:38:15;;;;;;;4.10;0.70;;;20.40;52.80;;;;;;5034458;28;20077;-70
2022/09/16 12:41:22;;;;;;;9.38;0.93;;;20.30;52.40;;;;;;5034833;28;20527;-70
2022/09/16 12:44:15;;;;;;;7.63;0.80;;;20.20;53.10;;;;;;5036288;28;20477;-70
2022/09/16 12:47:03;;;;;;;3.65;0.82;;;20.10;53.60;;;;;;5039079;28;20107;-71
2022/09/16 12:49:52;;;;;;;3.05;0.60;;;20.00;56.00;;;;;;5041225;28;20108;-70
2022/09/16 12:52:58;;;;;;;3.25;0.47;;;19.90;52.10;;;;;;5039824;28;20037;-70
2022/09/16 12:55:43;;;;;;;3.67;0.70;;;19.90;53.00;;;;;;5041406;28;20556;-70
2022/09/16 12:58:31;;;;;;;2.58;0.95;;;19.90;52.30;;;;;;5037270;28;20546;-70
2022/09/16 13:01:08;;;;;;;6.60;1.60;;;19.90;50.30;;;;;;5038955;28;20045;-70
2022/09/16 13:03:40;;;;;;;6.90;2.17;;;20.00;50.30;;;;;;5040711;28;20080;-70
2022/09/16 13:06:23;;;;;;;6.30;1.63;;;20.00;51.60;;;;;;5043717;28;20043;-70
2022/09/16 13:08:49;;;;;;;5.57;2.75;;;19.90;51.20;;;;;;5040733;28;20127;-70
2022/09/16 13:11:24;;;;;;;4.57;1.88;;;19.90;52.10;;;;;;5040541;28;20480;-70
2022/09/16 13:13:54;;;;;;;2.40;0.63;;;19.90;52.10;;;;;;5039305;28;20122;-70
2022/09/16 13:16:34;;;;;;;3.42;0.77;;;20.00;54.50;;;;;;5041428;28;20621;-70
2022/09/16 13:19:26;;;;;;;3.15;0.85;;;20.10;54.00;;;;;;5035475;28;20155;-69